sensor_id;sensor_type;location;lat;lon;timestamp;P1;durP1;ratioP1;P2;durP2;ratioP2
19998;SDS011;10160;50.926;4.374;2023-03-14T00:00:58;7.30;;;1.83;;
19998;SDS011;10160;50.926;4.374;2023-03-14T00:03:23;4.67;;;1.20;;
19998;SDS011;10160;50.926;4.374;2023-03-14T00:05:49;4.83;;;1.40;;
19998;SDS011;10160;50.926;4.374;2023-03-14T00:08:15;10.73;;;1.93;;
19998;SDS011;10160;50.926;4.374;2023-03-14T00:10:41;7.77;;;1.63;;
19998;SDS011;10160;50.926;4.374;2023-03-14T00:13:07;7.43;;;1.60;;
19998;SDS011;10160;50.926;4.374;2023-03-14T00:15:33;9.57;;;1.60;;
19998;SDS011;10160;50.926;4.374;2023-03-14T00:17:59;5.57;;;1.10;;
19998;SDS011;10160;50.926;4.374;2023-03-14T00:20:25;5.50;;;1.30;;
19998;SDS011;10160;50.926;4.374;2023-03-14T00:22:51;6.23;;;1.63;;
19998;SDS011;10160;50.926;4.374;2023-03-14T00:25:17;8.57;;;1.30;;
19998;SDS011;10160;50.926;4.374;2023-03-14T00:27:43;6.10;;;1.10;;
19998;SDS011;10160;50.926;4.374;2023-03-14T00:30:08;4.90;;;1.77;;
19998;SDS011;10160;50.926;4.374;2023-03-14T00:32:35;7.90;;;1.33;;
19998;SDS011;10160;50.926;4.374;2023-03-14T00:35:01;9.13;;;1.50;;
19998;SDS011;10160;50.926;4.374;2023-03-14T00:37:28;12.73;;;1.80;;
19998;SDS011;10160;50.926;4.374;2023-03-14T00:39:54;12.20;;;1.63;;
19998;SDS011;10160;50.926;4.374;2023-03-14T00:42:19;12.07;;;1.87;;
19998;SDS011;10160;50.926;4.374;2023-03-14T00:44:45;9.17;;;1.80;;
19998;SDS011;10160;50.926;4.374;2023-03-14T00:47:11;12.77;;;1.97;;
19998;SDS011;10160;50.926;4.374;2023-03-14T00:49:37;11.87;;;1.70;;
19998;SDS011;10160;50.926;4.374;2023-03-14T00:52:02;8.43;;;1.63;;
19998;SDS011;10160;50.926;4.374;2023-03-14T00:54:28;10.23;;;2.47;;
19998;SDS011;10160;50.926;4.374;2023-03-14T00:56:55;8.37;;;2.10;;
19998;SDS011;10160;50.926;4.374;2023-03-14T00:59:20;6.47;;;1.93;;
19998;SDS011;10160;50.926;4.374;2023-03-14T01:01:46;12.53;;;2.33;;
19998;SDS011;10160;50.926;4.374;2023-03-14T01:04:12;9.97;;;2.00;;
19998;SDS011;10160;50.926;4.374;2023-03-14T01:06:38;9.13;;;1.50;;
19998;SDS011;10160;50.926;4.374;2023-03-14T01:09:04;12.70;;;2.27;;
19998;SDS011;10160;50.926;4.374;2023-03-14T01:11:31;6.97;;;1.60;;
19998;SDS011;10160;50.926;4.374;2023-03-14T01:13:58;8.13;;;1.87;;
19998;SDS011;10160;50.926;4.374;2023-03-14T01:16:25;11.93;;;1.70;;
19998;SDS011;10160;50.926;4.374;2023-03-14T01:18:53;6.77;;;1.80;;
19998;SDS011;10160;50.926;4.374;2023-03-14T01:21:21;11.97;;;2.00;;
19998;SDS011;10160;50.926;4.374;2023-03-14T01:23:51;11.37;;;2.13;;
19998;SDS011;10160;50.926;4.374;2023-03-14T01:26:19;12.87;;;2.13;;
19998;SDS011;10160;50.926;4.374;2023-03-14T01:28:48;13.53;;;2.47;;
19998;SDS011;10160;50.926;4.374;2023-03-14T01:31:15;11.17;;;1.63;;
19998;SDS011;10160;50.926;4.374;2023-03-14T01:33:41;8.73;;;1.73;;
19998;SDS011;10160;50.926;4.374;2023-03-14T01:36:07;7.17;;;2.30;;
19998;SDS011;10160;50.926;4.374;2023-03-14T01:38:36;10.53;;;2.23;;
19998;SDS011;10160;50.926;4.374;2023-03-14T01:41:04;13.83;;;2.30;;
19998;SDS011;10160;50.926;4.374;2023-03-14T01:43:30;9.93;;;1.57;;
19998;SDS011;10160;50.926;4.374;2023-03-14T01:48:31;13.73;;;1.50;;
19998;SDS011;10160;50.926;4.374;2023-03-14T01:51:02;11.20;;;1.63;;
19998;SDS011;10160;50.926;4.374;2023-03-14T01:53:33;9.20;;;1.73;;
19998;SDS011;10160;50.926;4.374;2023-03-14T01:55:59;11.43;;;1.57;;
19998;SDS011;10160;50.926;4.374;2023-03-14T01:58:25;9.23;;;1.50;;
19998;SDS011;10160;50.926;4.374;2023-03-14T02:00:53;7.90;;;1.30;;
19998;SDS011;10160;50.926;4.374;2023-03-14T02:03:22;9.17;;;2.07;;
19998;SDS011;10160;50.926;4.374;2023-03-14T02:05:49;9.00;;;1.83;;
19998;SDS011;10160;50.926;4.374;2023-03-14T02:08:19;9.03;;;1.90;;
19998;SDS011;10160;50.926;4.374;2023-03-14T02:10:51;7.83;;;1.40;;
19998;SDS011;10160;50.926;4.374;2023-03-14T02:13:17;6.57;;;2.00;;
19998;SDS011;10160;50.926;4.374;2023-03-14T02:15:44;9.83;;;2.00;;
19998;SDS011;10160;50.926;4.374;2023-03-14T02:18:11;10.40;;;2.03;;
19998;SDS011;10160;50.926;4.374;2023-03-14T02:23:09;9.73;;;1.43;;
19998;SDS011;10160;50.926;4.374;2023-03-14T02:25:41;6.83;;;1.17;;
19998;SDS011;10160;50.926;4.374;2023-03-14T02:28:26;4.40;;;0.97;;
19998;SDS011;10160;50.926;4.374;2023-03-14T02:30:52;4.00;;;1.47;;
19998;SDS011;10160;50.926;4.374;2023-03-14T02:33:18;5.43;;;1.10;;
19998;SDS011;10160;50.926;4.374;2023-03-14T02:41:14;13.37;;;1.37;;
19998;SDS011;10160;50.926;4.374;2023-03-14T02:43:40;8.93;;;1.30;;
19998;SDS011;10160;50.926;4.374;2023-03-14T02:46:07;8.23;;;1.30;;
19998;SDS011;10160;50.926;4.374;2023-03-14T02:48:43;6.23;;;1.33;;
19998;SDS011;10160;50.926;4.374;2023-03-14T02:51:10;5.07;;;1.20;;
19998;SDS011;10160;50.926;4.374;2023-03-14T02:53:37;8.93;;;1.20;;
19998;SDS011;10160;50.926;4.374;2023-03-14T02:56:03;9.30;;;1.60;;
19998;SDS011;10160;50.926;4.374;2023-03-14T02:58:29;8.30;;;1.40;;
19998;SDS011;10160;50.926;4.374;2023-03-14T03:00:55;7.20;;;1.50;;
19998;SDS011;10160;50.926;4.374;2023-03-14T03:03:21;5.97;;;1.27;;
19998;SDS011;10160;50.926;4.374;2023-03-14T03:05:48;4.73;;;1.63;;
19998;SDS011;10160;50.926;4.374;2023-03-14T03:08:21;16.83;;;2.93;;
19998;SDS011;10160;50.926;4.374;2023-03-14T03:10:48;10.93;;;3.00;;
19998;SDS011;10160;50.926;4.374;2023-03-14T03:13:14;10.33;;;3.40;;
19998;SDS011;10160;50.926;4.374;2023-03-14T03:15:40;14.07;;;3.47;;
19998;SDS011;10160;50.926;4.374;2023-03-14T03:18:06;14.40;;;3.77;;
19998;SDS011;10160;50.926;4.374;2023-03-14T03:20:32;17.13;;;4.30;;
19998;SDS011;10160;50.926;4.374;2023-03-14T03:22:58;14.00;;;4.00;;
19998;SDS011;10160;50.926;4.374;2023-03-14T03:25:25;14.23;;;5.40;;
19998;SDS011;10160;50.926;4.374;2023-03-14T03:27:51;18.10;;;6.13;;
19998;SDS011;10160;50.926;4.374;2023-03-14T03:30:17;17.47;;;6.07;;
19998;SDS011;10160;50.926;4.374;2023-03-14T03:32:43;21.70;;;7.57;;
19998;SDS011;10160;50.926;4.374;2023-03-14T03:35:09;19.60;;;6.50;;
19998;SDS011;10160;50.926;4.374;2023-03-14T03:37:35;15.70;;;5.67;;
19998;SDS011;10160;50.926;4.374;2023-03-14T03:40:01;15.73;;;4.50;;
19998;SDS011;10160;50.926;4.374;2023-03-14T03:42:30;15.07;;;4.37;;
19998;SDS011;10160;50.926;4.374;2023-03-14T03:44:57;11.20;;;4.43;;
19998;SDS011;10160;50.926;4.374;2023-03-14T03:47:24;13.23;;;4.33;;
19998;SDS011;10160;50.926;4.374;2023-03-14T03:49:49;15.47;;;4.57;;
19998;SDS011;10160;50.926;4.374;2023-03-14T03:52:15;19.47;;;4.27;;
19998;SDS011;10160;50.926;4.374;2023-03-14T03:54:41;20.57;;;3.70;;
19998;SDS011;10160;50.926;4.374;2023-03-14T03:57:06;11.43;;;3.17;;
19998;SDS011;10160;50.926;4.374;2023-03-14T03:59:32;16.43;;;3.30;;
19998;SDS011;10160;50.926;4.374;2023-03-14T04:01:58;12.63;;;3.33;;
19998;SDS011;10160;50.926;4.374;2023-03-14T04:04:23;17.40;;;3.37;;
19998;SDS011;10160;50.926;4.374;2023-03-14T04:06:49;16.43;;;3.20;;
19998;SDS011;10160;50.926;4.374;2023-03-14T04:09:15;12.90;;;3.27;;
19998;SDS011;10160;50.926;4.374;2023-03-14T04:11:40;10.83;;;2.70;;
19998;SDS011;10160;50.926;4.374;2023-03-14T04:14:06;14.70;;;3.73;;
19998;SDS011;10160;50.926;4.374;2023-03-14T04:16:32;11.90;;;3.33;;
19998;SDS011;10160;50.926;4.374;2023-03-14T04:18:59;12.43;;;2.70;;
19998;SDS011;10160;50.926;4.374;2023-03-14T04:21:25;9.70;;;2.63;;
19998;SDS011;10160;50.926;4.374;2023-03-14T04:23:51;18.27;;;2.90;;
19998;SDS011;10160;50.926;4.374;2023-03-14T04:26:16;7.00;;;2.53;;
19998;SDS011;10160;50.926;4.374;2023-03-14T04:28:42;9.00;;;2.83;;
19998;SDS011;10160;50.926;4.374;2023-03-14T04:31:12;7.47;;;2.10;;
19998;SDS011;10160;50.926;4.374;2023-03-14T04:33:38;6.77;;;2.17;;
19998;SDS011;10160;50.926;4.374;2023-03-14T04:36:04;4.87;;;1.70;;
19998;SDS011;10160;50.926;4.374;2023-03-14T04:38:31;8.07;;;2.00;;
19998;SDS011;10160;50.926;4.374;2023-03-14T04:40:57;12.00;;;2.90;;
19998;SDS011;10160;50.926;4.374;2023-03-14T04:43:24;9.20;;;2.00;;
19998;SDS011;10160;50.926;4.374;2023-03-14T04:45:51;8.03;;;2.10;;
19998;SDS011;10160;50.926;4.374;2023-03-14T04:48:20;8.80;;;2.37;;
19998;SDS011;10160;50.926;4.374;2023-03-14T04:50:46;10.90;;;2.07;;
19998;SDS011;10160;50.926;4.374;2023-03-14T04:53:12;9.47;;;2.03;;
19998;SDS011;10160;50.926;4.374;2023-03-14T04:55:38;8.57;;;2.17;;
19998;SDS011;10160;50.926;4.374;2023-03-14T04:58:04;5.47;;;2.13;;
19998;SDS011;10160;50.926;4.374;2023-03-14T05:00:30;10.80;;;2.07;;
19998;SDS011;10160;50.926;4.374;2023-03-14T05:02:56;6.13;;;2.43;;
19998;SDS011;10160;50.926;4.374;2023-03-14T05:05:22;7.97;;;2.50;;
19998;SDS011;10160;50.926;4.374;2023-03-14T05:07:48;9.97;;;2.40;;
19998;SDS011;10160;50.926;4.374;2023-03-14T05:10:13;5.73;;;1.80;;
19998;SDS011;10160;50.926;4.374;2023-03-14T05:12:39;7.53;;;2.33;;
19998;SDS011;10160;50.926;4.374;2023-03-14T05:15:05;7.13;;;1.97;;
19998;SDS011;10160;50.926;4.374;2023-03-14T05:17:34;6.77;;;2.23;;
19998;SDS011;10160;50.926;4.374;2023-03-14T05:20:00;6.23;;;2.23;;
19998;SDS011;10160;50.926;4.374;2023-03-14T05:22:26;12.07;;;2.90;;
19998;SDS011;10160;50.926;4.374;2023-03-14T05:24:52;5.83;;;2.67;;
19998;SDS011;10160;50.926;4.374;2023-03-14T05:27:21;8.07;;;2.40;;
19998;SDS011;10160;50.926;4.374;2023-03-14T05:29:47;8.13;;;2.63;;
19998;SDS011;10160;50.926;4.374;2023-03-14T05:32:13;8.73;;;2.50;;
19998;SDS011;10160;50.926;4.374;2023-03-14T05:34:39;6.80;;;2.70;;
19998;SDS011;10160;50.926;4.374;2023-03-14T05:37:04;9.10;;;3.00;;
19998;SDS011;10160;50.926;4.374;2023-03-14T05:39:30;11.93;;;2.80;;
19998;SDS011;10160;50.926;4.374;2023-03-14T05:41:55;8.43;;;2.80;;
19998;SDS011;10160;50.926;4.374;2023-03-14T05:44:21;7.33;;;2.80;;
19998;SDS011;10160;50.926;4.374;2023-03-14T05:46:47;7.47;;;3.07;;
19998;SDS011;10160;50.926;4.374;2023-03-14T05:49:13;5.77;;;2.50;;
19998;SDS011;10160;50.926;4.374;2023-03-14T05:51:38;8.80;;;2.97;;
19998;SDS011;10160;50.926;4.374;2023-03-14T05:54:04;6.27;;;2.90;;
19998;SDS011;10160;50.926;4.374;2023-03-14T05:56:30;5.80;;;2.80;;
19998;SDS011;10160;50.926;4.374;2023-03-14T05:58:55;6.13;;;2.67;;
19998;SDS011;10160;50.926;4.374;2023-03-14T06:01:21;5.23;;;2.80;;
19998;SDS011;10160;50.926;4.374;2023-03-14T06:03:47;5.33;;;2.50;;
19998;SDS011;10160;50.926;4.374;2023-03-14T06:06:12;6.93;;;2.93;;
19998;SDS011;10160;50.926;4.374;2023-03-14T06:08:38;6.57;;;3.07;;
19998;SDS011;10160;50.926;4.374;2023-03-14T06:11:04;6.73;;;3.03;;
19998;SDS011;10160;50.926;4.374;2023-03-14T06:13:30;7.67;;;2.97;;
19998;SDS011;10160;50.926;4.374;2023-03-14T06:15:55;8.57;;;2.40;;
19998;SDS011;10160;50.926;4.374;2023-03-14T06:18:21;7.30;;;2.83;;
19998;SDS011;10160;50.926;4.374;2023-03-14T06:20:47;8.47;;;2.63;;
19998;SDS011;10160;50.926;4.374;2023-03-14T06:23:12;8.17;;;2.93;;
19998;SDS011;10160;50.926;4.374;2023-03-14T06:25:38;8.77;;;3.47;;
19998;SDS011;10160;50.926;4.374;2023-03-14T06:28:04;7.20;;;2.30;;
19998;SDS011;10160;50.926;4.374;2023-03-14T06:30:29;7.63;;;3.43;;
19998;SDS011;10160;50.926;4.374;2023-03-14T06:32:55;8.63;;;3.47;;
19998;SDS011;10160;50.926;4.374;2023-03-14T06:35:21;8.43;;;3.10;;
19998;SDS011;10160;50.926;4.374;2023-03-14T06:37:47;8.57;;;3.97;;
19998;SDS011;10160;50.926;4.374;2023-03-14T06:40:13;11.17;;;3.70;;
19998;SDS011;10160;50.926;4.374;2023-03-14T06:42:42;6.70;;;2.70;;
19998;SDS011;10160;50.926;4.374;2023-03-14T06:45:09;8.57;;;3.83;;
19998;SDS011;10160;50.926;4.374;2023-03-14T06:47:35;6.97;;;3.60;;
19998;SDS011;10160;50.926;4.374;2023-03-14T06:50:01;6.67;;;3.67;;
19998;SDS011;10160;50.926;4.374;2023-03-14T06:52:26;3.97;;;2.50;;
19998;SDS011;10160;50.926;4.374;2023-03-14T06:54:52;3.50;;;1.93;;
19998;SDS011;10160;50.926;4.374;2023-03-14T06:57:18;6.43;;;1.70;;
19998;SDS011;10160;50.926;4.374;2023-03-14T06:59:44;3.97;;;1.77;;
19998;SDS011;10160;50.926;4.374;2023-03-14T07:02:10;4.83;;;2.13;;
19998;SDS011;10160;50.926;4.374;2023-03-14T07:04:37;4.03;;;2.13;;
19998;SDS011;10160;50.926;4.374;2023-03-14T07:07:03;8.87;;;2.83;;
19998;SDS011;10160;50.926;4.374;2023-03-14T07:09:29;7.47;;;3.00;;
19998;SDS011;10160;50.926;4.374;2023-03-14T07:11:55;6.00;;;2.90;;
19998;SDS011;10160;50.926;4.374;2023-03-14T07:14:20;8.13;;;3.47;;
19998;SDS011;10160;50.926;4.374;2023-03-14T07:16:46;10.30;;;3.37;;
19998;SDS011;10160;50.926;4.374;2023-03-14T07:19:12;8.77;;;3.60;;
19998;SDS011;10160;50.926;4.374;2023-03-14T07:21:37;7.83;;;2.93;;
19998;SDS011;10160;50.926;4.374;2023-03-14T07:24:03;6.20;;;2.60;;
19998;SDS011;10160;50.926;4.374;2023-03-14T07:26:29;8.73;;;2.90;;
19998;SDS011;10160;50.926;4.374;2023-03-14T07:28:55;5.80;;;2.20;;
19998;SDS011;10160;50.926;4.374;2023-03-14T07:31:20;10.67;;;2.40;;
19998;SDS011;10160;50.926;4.374;2023-03-14T07:33:46;9.30;;;2.87;;
19998;SDS011;10160;50.926;4.374;2023-03-14T07:36:12;8.23;;;2.77;;
19998;SDS011;10160;50.926;4.374;2023-03-14T07:38:38;5.90;;;2.50;;
19998;SDS011;10160;50.926;4.374;2023-03-14T07:41:05;7.63;;;2.70;;
19998;SDS011;10160;50.926;4.374;2023-03-14T07:43:31;10.97;;;3.07;;
19998;SDS011;10160;50.926;4.374;2023-03-14T07:45:58;7.53;;;3.00;;
19998;SDS011;10160;50.926;4.374;2023-03-14T07:48:23;8.20;;;2.77;;
19998;SDS011;10160;50.926;4.374;2023-03-14T07:50:51;6.47;;;2.70;;
19998;SDS011;10160;50.926;4.374;2023-03-14T07:53:17;7.57;;;3.30;;
19998;SDS011;10160;50.926;4.374;2023-03-14T07:55:43;10.83;;;3.80;;
19998;SDS011;10160;50.926;4.374;2023-03-14T07:58:10;7.10;;;2.80;;
19998;SDS011;10160;50.926;4.374;2023-03-14T08:00:36;8.07;;;3.13;;
19998;SDS011;10160;50.926;4.374;2023-03-14T08:03:01;7.03;;;2.60;;
19998;SDS011;10160;50.926;4.374;2023-03-14T08:05:27;6.87;;;2.30;;
19998;SDS011;10160;50.926;4.374;2023-03-14T08:07:53;7.57;;;2.73;;
19998;SDS011;10160;50.926;4.374;2023-03-14T08:10:18;6.13;;;2.90;;
19998;SDS011;10160;50.926;4.374;2023-03-14T08:12:54;5.33;;;2.60;;
19998;SDS011;10160;50.926;4.374;2023-03-14T08:15:21;7.90;;;2.97;;
19998;SDS011;10160;50.926;4.374;2023-03-14T08:17:47;6.00;;;3.00;;
19998;SDS011;10160;50.926;4.374;2023-03-14T08:20:16;9.17;;;3.70;;
19998;SDS011;10160;50.926;4.374;2023-03-14T08:22:42;10.17;;;3.40;;
19998;SDS011;10160;50.926;4.374;2023-03-14T08:25:08;9.40;;;3.70;;
19998;SDS011;10160;50.926;4.374;2023-03-14T08:27:34;8.83;;;4.17;;
19998;SDS011;10160;50.926;4.374;2023-03-14T08:30:02;12.37;;;4.20;;
19998;SDS011;10160;50.926;4.374;2023-03-14T08:32:29;9.60;;;4.60;;
19998;SDS011;10160;50.926;4.374;2023-03-14T08:34:55;7.70;;;3.90;;
19998;SDS011;10160;50.926;4.374;2023-03-14T08:37:20;10.60;;;4.40;;
19998;SDS011;10160;50.926;4.374;2023-03-14T08:39:49;9.33;;;4.27;;
19998;SDS011;10160;50.926;4.374;2023-03-14T08:42:15;10.97;;;4.57;;
19998;SDS011;10160;50.926;4.374;2023-03-14T08:44:41;8.57;;;4.40;;
19998;SDS011;10160;50.926;4.374;2023-03-14T08:47:07;9.00;;;3.83;;
19998;SDS011;10160;50.926;4.374;2023-03-14T08:49:33;10.20;;;3.30;;
19998;SDS011;10160;50.926;4.374;2023-03-14T08:51:58;12.30;;;4.27;;
19998;SDS011;10160;50.926;4.374;2023-03-14T08:54:26;9.20;;;4.47;;
19998;SDS011;10160;50.926;4.374;2023-03-14T08:56:51;7.23;;;3.47;;
19998;SDS011;10160;50.926;4.374;2023-03-14T08:59:17;10.43;;;4.83;;
19998;SDS011;10160;50.926;4.374;2023-03-14T09:01:43;14.50;;;4.20;;
19998;SDS011;10160;50.926;4.374;2023-03-14T09:04:08;10.93;;;4.63;;
19998;SDS011;10160;50.926;4.374;2023-03-14T09:06:35;12.90;;;4.13;;
19998;SDS011;10160;50.926;4.374;2023-03-14T09:09:00;9.33;;;3.50;;
19998;SDS011;10160;50.926;4.374;2023-03-14T09:11:26;5.77;;;3.13;;
19998;SDS011;10160;50.926;4.374;2023-03-14T09:13:52;6.03;;;3.40;;
19998;SDS011;10160;50.926;4.374;2023-03-14T09:16:18;7.60;;;3.27;;
19998;SDS011;10160;50.926;4.374;2023-03-14T09:18:43;7.27;;;3.60;;
19998;SDS011;10160;50.926;4.374;2023-03-14T09:21:09;10.30;;;4.60;;
19998;SDS011;10160;50.926;4.374;2023-03-14T09:23:35;7.97;;;3.90;;
19998;SDS011;10160;50.926;4.374;2023-03-14T09:26:00;9.63;;;3.73;;
19998;SDS011;10160;50.926;4.374;2023-03-14T09:28:26;11.10;;;3.77;;
19998;SDS011;10160;50.926;4.374;2023-03-14T09:30:52;9.03;;;3.93;;
19998;SDS011;10160;50.926;4.374;2023-03-14T09:33:19;10.47;;;4.33;;
19998;SDS011;10160;50.926;4.374;2023-03-14T09:35:45;10.33;;;4.07;;
19998;SDS011;10160;50.926;4.374;2023-03-14T09:38:11;12.53;;;4.73;;
19998;SDS011;10160;50.926;4.374;2023-03-14T09:40:37;12.67;;;3.80;;
19998;SDS011;10160;50.926;4.374;2023-03-14T09:43:03;13.63;;;3.23;;
19998;SDS011;10160;50.926;4.374;2023-03-14T09:45:36;10.93;;;3.97;;
19998;SDS011;10160;50.926;4.374;2023-03-14T09:48:05;13.30;;;3.60;;
19998;SDS011;10160;50.926;4.374;2023-03-14T09:50:37;13.43;;;3.00;;
19998;SDS011;10160;50.926;4.374;2023-03-14T09:53:09;16.10;;;3.47;;
19998;SDS011;10160;50.926;4.374;2023-03-14T09:55:39;12.87;;;2.37;;
19998;SDS011;10160;50.926;4.374;2023-03-14T09:58:11;11.87;;;4.53;;
19998;SDS011;10160;50.926;4.374;2023-03-14T10:00:39;6.20;;;2.70;;
19998;SDS011;10160;50.926;4.374;2023-03-14T10:05:37;11.60;;;3.53;;
19998;SDS011;10160;50.926;4.374;2023-03-14T10:08:03;14.43;;;2.63;;
19998;SDS011;10160;50.926;4.374;2023-03-14T10:10:29;6.87;;;2.33;;
19998;SDS011;10160;50.926;4.374;2023-03-14T10:13:00;16.07;;;4.70;;
19998;SDS011;10160;50.926;4.374;2023-03-14T10:15:53;8.20;;;2.50;;
19998;SDS011;10160;50.926;4.374;2023-03-14T10:18:19;12.13;;;2.83;;
19998;SDS011;10160;50.926;4.374;2023-03-14T10:20:47;11.13;;;2.00;;
19998;SDS011;10160;50.926;4.374;2023-03-14T10:25:43;9.00;;;2.67;;
19998;SDS011;10160;50.926;4.374;2023-03-14T10:28:32;11.67;;;2.70;;
19998;SDS011;10160;50.926;4.374;2023-03-14T10:31:03;9.80;;;2.80;;
19998;SDS011;10160;50.926;4.374;2023-03-14T10:33:30;7.40;;;2.10;;
19998;SDS011;10160;50.926;4.374;2023-03-14T10:35:58;5.53;;;1.70;;
19998;SDS011;10160;50.926;4.374;2023-03-14T10:38:30;6.00;;;1.80;;
19998;SDS011;10160;50.926;4.374;2023-03-14T10:41:00;5.73;;;1.70;;
19998;SDS011;10160;50.926;4.374;2023-03-14T10:43:34;7.83;;;1.60;;
19998;SDS011;10160;50.926;4.374;2023-03-14T10:46:05;3.80;;;1.53;;
19998;SDS011;10160;50.926;4.374;2023-03-14T10:48:35;4.93;;;1.60;;
19998;SDS011;10160;50.926;4.374;2023-03-14T10:53:55;7.87;;;1.80;;
19998;SDS011;10160;50.926;4.374;2023-03-14T10:56:26;8.60;;;1.57;;
19998;SDS011;10160;50.926;4.374;2023-03-14T10:58:57;5.07;;;1.60;;
19998;SDS011;10160;50.926;4.374;2023-03-14T11:04:01;3.63;;;1.67;;
19998;SDS011;10160;50.926;4.374;2023-03-14T11:06:56;3.40;;;1.73;;
19998;SDS011;10160;50.926;4.374;2023-03-14T11:09:47;3.50;;;1.30;;
19998;SDS011;10160;50.926;4.374;2023-03-14T11:23:58;5.50;;;1.43;;
19998;SDS011;10160;50.926;4.374;2023-03-14T11:26:56;3.10;;;1.20;;
19998;SDS011;10160;50.926;4.374;2023-03-14T11:29:40;3.13;;;1.30;;
19998;SDS011;10160;50.926;4.374;2023-03-14T11:32:13;1.77;;;0.90;;
19998;SDS011;10160;50.926;4.374;2023-03-14T11:34:50;3.57;;;1.30;;
19998;SDS011;10160;50.926;4.374;2023-03-14T11:37:22;3.17;;;1.50;;
19998;SDS011;10160;50.926;4.374;2023-03-14T11:40:03;5.40;;;1.60;;
19998;SDS011;10160;50.926;4.374;2023-03-14T11:42:31;4.20;;;1.70;;
19998;SDS011;10160;50.926;4.374;2023-03-14T11:44:58;3.63;;;1.20;;
19998;SDS011;10160;50.926;4.374;2023-03-14T11:47:29;2.33;;;1.20;;
19998;SDS011;10160;50.926;4.374;2023-03-14T11:50:22;3.60;;;1.70;;
19998;SDS011;10160;50.926;4.374;2023-03-14T11:52:55;4.63;;;1.27;;
19998;SDS011;10160;50.926;4.374;2023-03-14T11:55:35;2.40;;;1.10;;
19998;SDS011;10160;50.926;4.374;2023-03-14T12:00:51;3.67;;;1.57;;
19998;SDS011;10160;50.926;4.374;2023-03-14T12:06:50;4.47;;;1.53;;
19998;SDS011;10160;50.926;4.374;2023-03-14T12:09:17;3.93;;;1.50;;
19998;SDS011;10160;50.926;4.374;2023-03-14T12:11:52;2.70;;;1.60;;
19998;SDS011;10160;50.926;4.374;2023-03-14T12:14:30;3.87;;;1.53;;
19998;SDS011;10160;50.926;4.374;2023-03-14T12:17:17;4.63;;;1.80;;
19998;SDS011;10160;50.926;4.374;2023-03-14T12:19:46;3.87;;;1.70;;
19998;SDS011;10160;50.926;4.374;2023-03-14T12:22:17;4.80;;;1.47;;
19998;SDS011;10160;50.926;4.374;2023-03-14T12:24:53;5.90;;;1.50;;
19998;SDS011;10160;50.926;4.374;2023-03-14T12:28:23;4.80;;;1.90;;
19998;SDS011;10160;50.926;4.374;2023-03-14T12:30:39;3.90;;;1.87;;
19998;SDS011;10160;50.926;4.374;2023-03-14T12:38:04;6.93;;;1.70;;
19998;SDS011;10160;50.926;4.374;2023-03-14T12:40:39;7.30;;;2.23;;
19998;SDS011;10160;50.926;4.374;2023-03-14T12:43:25;9.13;;;2.10;;
19998;SDS011;10160;50.926;4.374;2023-03-14T12:48:40;9.90;;;2.27;;
19998;SDS011;10160;50.926;4.374;2023-03-14T12:51:16;14.17;;;4.03;;
19998;SDS011;10160;50.926;4.374;2023-03-14T12:56:54;7.73;;;2.70;;
19998;SDS011;10160;50.926;4.374;2023-03-14T12:59:26;7.53;;;2.83;;
19998;SDS011;10160;50.926;4.374;2023-03-14T13:01:54;7.27;;;2.50;;
19998;SDS011;10160;50.926;4.374;2023-03-14T13:04:44;7.33;;;2.80;;
19998;SDS011;10160;50.926;4.374;2023-03-14T13:10:18;5.80;;;1.97;;
19998;SDS011;10160;50.926;4.374;2023-03-14T13:12:54;7.60;;;2.13;;
19998;SDS011;10160;50.926;4.374;2023-03-14T13:15:40;12.77;;;2.97;;
19998;SDS011;10160;50.926;4.374;2023-03-14T13:20:48;18.40;;;3.37;;
19998;SDS011;10160;50.926;4.374;2023-03-14T13:23:27;12.07;;;2.70;;
19998;SDS011;10160;50.926;4.374;2023-03-14T13:25:55;11.40;;;2.93;;
19998;SDS011;10160;50.926;4.374;2023-03-14T13:28:22;19.10;;;3.13;;
19998;SDS011;10160;50.926;4.374;2023-03-14T13:30:48;18.57;;;3.17;;
19998;SDS011;10160;50.926;4.374;2023-03-14T13:33:17;19.33;;;3.97;;
19998;SDS011;10160;50.926;4.374;2023-03-14T13:38:24;19.27;;;4.13;;
19998;SDS011;10160;50.926;4.374;2023-03-14T13:40:51;18.33;;;3.93;;
19998;SDS011;10160;50.926;4.374;2023-03-14T13:43:25;19.13;;;3.73;;
19998;SDS011;10160;50.926;4.374;2023-03-14T13:46:42;18.90;;;3.67;;
19998;SDS011;10160;50.926;4.374;2023-03-14T13:48:50;20.73;;;3.33;;
19998;SDS011;10160;50.926;4.374;2023-03-14T13:51:30;22.03;;;4.23;;
19998;SDS011;10160;50.926;4.374;2023-03-14T13:54:00;22.40;;;4.20;;
19998;SDS011;10160;50.926;4.374;2023-03-14T13:56:29;24.30;;;4.03;;
19998;SDS011;10160;50.926;4.374;2023-03-14T13:58:56;16.23;;;3.17;;
19998;SDS011;10160;50.926;4.374;2023-03-14T14:01:23;21.97;;;3.50;;
19998;SDS011;10160;50.926;4.374;2023-03-14T14:03:56;28.73;;;3.97;;
19998;SDS011;10160;50.926;4.374;2023-03-14T14:06:26;18.93;;;2.90;;
19998;SDS011;10160;50.926;4.374;2023-03-14T14:08:53;16.87;;;3.13;;
19998;SDS011;10160;50.926;4.374;2023-03-14T14:11:35;22.87;;;3.30;;
19998;SDS011;10160;50.926;4.374;2023-03-14T14:14:25;20.37;;;3.03;;
19998;SDS011;10160;50.926;4.374;2023-03-14T14:17:15;17.23;;;3.07;;
19998;SDS011;10160;50.926;4.374;2023-03-14T14:19:47;15.70;;;2.70;;
19998;SDS011;10160;50.926;4.374;2023-03-14T14:22:14;18.80;;;2.60;;
19998;SDS011;10160;50.926;4.374;2023-03-14T14:24:40;20.20;;;4.03;;
19998;SDS011;10160;50.926;4.374;2023-03-14T14:27:14;15.73;;;2.77;;
19998;SDS011;10160;50.926;4.374;2023-03-14T14:29:42;14.73;;;3.10;;
19998;SDS011;10160;50.926;4.374;2023-03-14T14:32:11;12.57;;;2.13;;
19998;SDS011;10160;50.926;4.374;2023-03-14T14:34:43;14.97;;;2.27;;
19998;SDS011;10160;50.926;4.374;2023-03-14T14:37:20;11.60;;;2.27;;
19998;SDS011;10160;50.926;4.374;2023-03-14T14:39:51;4.97;;;1.50;;
19998;SDS011;10160;50.926;4.374;2023-03-14T14:42:19;6.63;;;1.33;;
19998;SDS011;10160;50.926;4.374;2023-03-14T14:44:50;6.87;;;1.37;;
19998;SDS011;10160;50.926;4.374;2023-03-14T14:47:21;3.83;;;1.20;;
19998;SDS011;10160;50.926;4.374;2023-03-14T14:49:49;3.13;;;1.20;;
19998;SDS011;10160;50.926;4.374;2023-03-14T14:55:50;1.53;;;1.00;;
19998;SDS011;10160;50.926;4.374;2023-03-14T14:57:58;4.80;;;1.20;;
19998;SDS011;10160;50.926;4.374;2023-03-14T15:00:49;5.10;;;1.40;;
19998;SDS011;10160;50.926;4.374;2023-03-14T15:03:19;2.10;;;0.90;;
19998;SDS011;10160;50.926;4.374;2023-03-14T15:05:44;4.17;;;1.07;;
19998;SDS011;10160;50.926;4.374;2023-03-14T15:08:10;2.93;;;1.30;;
19998;SDS011;10160;50.926;4.374;2023-03-14T15:10:36;2.90;;;1.10;;
19998;SDS011;10160;50.926;4.374;2023-03-14T15:13:02;6.50;;;1.20;;
19998;SDS011;10160;50.926;4.374;2023-03-14T15:15:28;4.23;;;1.40;;
19998;SDS011;10160;50.926;4.374;2023-03-14T15:17:53;4.97;;;1.00;;
19998;SDS011;10160;50.926;4.374;2023-03-14T15:20:19;3.90;;;1.20;;
19998;SDS011;10160;50.926;4.374;2023-03-14T15:22:48;5.27;;;1.30;;
19998;SDS011;10160;50.926;4.374;2023-03-14T15:25:14;4.83;;;1.10;;
19998;SDS011;10160;50.926;4.374;2023-03-14T15:27:40;6.00;;;1.00;;
19998;SDS011;10160;50.926;4.374;2023-03-14T15:30:14;7.30;;;1.50;;
19998;SDS011;10160;50.926;4.374;2023-03-14T15:32:40;6.17;;;1.40;;
19998;SDS011;10160;50.926;4.374;2023-03-14T15:35:06;6.40;;;1.43;;
19998;SDS011;10160;50.926;4.374;2023-03-14T15:37:32;8.40;;;2.40;;
19998;SDS011;10160;50.926;4.374;2023-03-14T15:39:58;3.77;;;1.70;;
19998;SDS011;10160;50.926;4.374;2023-03-14T15:42:24;3.60;;;1.40;;
19998;SDS011;10160;50.926;4.374;2023-03-14T15:44:50;10.10;;;1.70;;
19998;SDS011;10160;50.926;4.374;2023-03-14T15:47:15;5.63;;;1.80;;
19998;SDS011;10160;50.926;4.374;2023-03-14T15:49:41;5.67;;;1.97;;
19998;SDS011;10160;50.926;4.374;2023-03-14T15:52:07;8.50;;;1.90;;